createdAt,value
2022-12-27T00:01:34.920Z,101001.66
2022-12-27T00:04:03.310Z,100997.78
2022-12-27T00:06:31.265Z,101002.81
2022-12-27T00:09:00.981Z,101010.75
2022-12-27T00:11:30.690Z,101009.81
2022-12-27T00:13:59.280Z,101007.88
2022-12-27T00:16:29.344Z,101013.88
2022-12-27T00:18:58.579Z,101021.81
2022-12-27T00:21:26.848Z,101012.09
2022-12-27T00:23:57.545Z,101013.31
2022-12-27T00:26:45.490Z,101013.72
2022-12-27T00:29:13.671Z,101014.75
2022-12-27T00:31:41.537Z,101019.25
2022-12-27T00:34:10.443Z,101022.88
2022-12-27T00:36:38.367Z,101019.72
2022-12-27T00:39:06.605Z,101023.22
2022-12-27T00:41:34.469Z,101025.03
2022-12-27T00:44:03.860Z,101024.03
2022-12-27T00:46:31.692Z,101024.84
2022-12-27T00:48:59.502Z,101039.78
2022-12-27T00:51:27.597Z,101037.72
2022-12-27T00:53:55.908Z,101034.06
2022-12-27T00:56:28.927Z,101042.88
2022-12-27T00:58:59.292Z,101047.59
2022-12-27T01:01:32.100Z,101035.94
2022-12-27T01:04:00.844Z,101047.13
2022-12-27T01:06:33.500Z,101041.25
2022-12-27T01:09:05.213Z,101045.16
2022-12-27T01:11:34.314Z,101046.66
2022-12-27T01:14:05.127Z,101048.69
2022-12-27T01:16:34.944Z,101050.59
2022-12-27T01:19:04.386Z,101050.78
2022-12-27T01:21:32.174Z,101045.47
2022-12-27T01:24:00.065Z,101049.91
2022-12-27T01:26:29.063Z,101051.19
2022-12-27T01:28:57.000Z,101056.78
2022-12-27T01:31:28.229Z,101057.81
2022-12-27T01:34:00.241Z,101065.03
2022-12-27T01:36:30.545Z,101066.84
2022-12-27T01:38:59.884Z,101072.16
2022-12-27T01:41:49.514Z,101075.13
2022-12-27T01:44:50.186Z,101080.81
2022-12-27T01:47:34.739Z,101084.66
2022-12-27T01:50:19.802Z,101082.22
2022-12-27T01:52:58.694Z,101087.34
2022-12-27T01:55:35.574Z,101095.81
2022-12-27T01:58:11.271Z,101096.81
2022-12-27T02:00:43.935Z,101096.69
2022-12-27T02:03:18.097Z,101097.69
2022-12-27T02:05:47.782Z,101102.72
2022-12-27T02:08:32.288Z,101098.28
2022-12-27T02:11:02.749Z,101102.25
2022-12-27T02:13:35.940Z,101100.06
2022-12-27T02:16:12.738Z,101093.84
2022-12-27T02:18:41.181Z,101098.81
2022-12-27T02:21:56.042Z,101089.06
2022-12-27T02:24:56.884Z,101086.38
2022-12-27T02:27:50.708Z,101083.22
2022-12-27T02:30:20.455Z,101088.91
2022-12-27T02:32:56.955Z,101090.31
2022-12-27T02:35:31.952Z,101082.81
2022-12-27T02:38:07.010Z,101083.41
2022-12-27T02:40:55.765Z,101083.22
2022-12-27T02:43:42.864Z,101085.19
2022-12-27T02:46:36.802Z,101094.25
2022-12-27T02:49:43.793Z,101096.44
2022-12-27T02:52:51.876Z,101106.09
2022-12-27T02:55:35.209Z,101103.53
2022-12-27T02:58:25.701Z,101098.63
2022-12-27T03:01:32.678Z,101104.50
2022-12-27T03:04:24.717Z,101097.19
2022-12-27T03:07:14.864Z,101092.31
2022-12-27T03:10:13.147Z,101093.56
2022-12-27T03:13:12.880Z,101089.56
2022-12-27T03:15:58.017Z,101102.25
2022-12-27T03:18:42.845Z,101098.63
2022-12-27T03:21:41.095Z,101100.38
2022-12-27T03:24:30.888Z,101101.63
2022-12-27T03:27:02.277Z,101107.66
2022-12-27T03:29:50.226Z,101105.56
2022-12-27T03:32:37.580Z,101101.53
2022-12-27T03:35:16.927Z,101110.59
2022-12-27T03:38:03.555Z,101119.06
2022-12-27T03:41:07.069Z,101107.84
2022-12-27T03:43:38.336Z,101104.69
2022-12-27T03:46:35.945Z,101121.41
2022-12-27T03:49:20.888Z,101112.53
2022-12-27T03:51:58.561Z,101115.19
2022-12-27T03:54:34.210Z,101118.09
2022-12-27T03:57:06.286Z,101121.59
2022-12-27T03:59:34.719Z,101134.03
2022-12-27T04:02:02.592Z,101132.47
2022-12-27T04:04:30.946Z,101116.59
2022-12-27T04:06:58.876Z,101123.66
2022-12-27T04:09:46.874Z,101120.84
2022-12-27T04:12:33.285Z,101122.19
2022-12-27T04:15:22.746Z,101109.06
2022-12-27T04:18:09.532Z,101124.53
2022-12-27T04:20:57.228Z,101130.94
2022-12-27T04:23:43.997Z,101142.72
2022-12-27T04:26:32.043Z,101131.47
2022-12-27T04:29:18.982Z,101136.59
2022-12-27T04:32:05.449Z,101143.34
2022-12-27T04:34:42.843Z,101142.28
2022-12-27T04:37:14.967Z,101137.34
2022-12-27T04:40:03.740Z,101140.53
2022-12-27T04:42:51.436Z,101141.44
2022-12-27T04:45:39.039Z,101155.72
2022-12-27T04:48:31.439Z,101141.72
2022-12-27T04:51:18.435Z,101137.59
2022-12-27T04:54:05.085Z,101143.28
2022-12-27T04:56:32.902Z,101151.78
2022-12-27T04:59:20.849Z,101148.03
2022-12-27T05:02:04.501Z,101150.78
2022-12-27T05:04:36.793Z,101150.59
2022-12-27T05:07:30.561Z,101158.47
2022-12-27T05:10:20.073Z,101164.97
2022-12-27T05:13:06.188Z,101175.78
2022-12-27T05:15:35.300Z,101178.28
2022-12-27T05:18:03.118Z,101182.03
2022-12-27T05:20:30.972Z,101185.78
2022-12-27T05:23:17.681Z,101184.16
2022-12-27T05:25:47.100Z,101188.25
2022-12-27T05:28:14.947Z,101194.31
2022-12-27T05:30:44.900Z,101195.00
2022-12-27T05:33:12.744Z,101188.47
2022-12-27T05:35:41.571Z,101192.19
2022-12-27T05:38:09.544Z,101185.81
2022-12-27T05:40:37.261Z,101195.25
2022-12-27T05:43:05.244Z,101193.44
2022-12-27T05:45:33.491Z,101187.50
2022-12-27T05:48:02.675Z,101207.81
2022-12-27T05:50:30.436Z,101210.16
2022-12-27T05:53:11.026Z,101208.56
2022-12-27T05:55:38.915Z,101205.13
2022-12-27T05:58:07.649Z,101210.28
2022-12-27T06:00:35.596Z,101212.59
2022-12-27T06:03:04.931Z,101212.56
2022-12-27T06:05:32.821Z,101207.28
2022-12-27T06:08:00.691Z,101209.22
2022-12-27T06:10:28.495Z,101220.25
2022-12-27T06:12:59.173Z,101215.06
2022-12-27T06:15:27.370Z,101220.91
2022-12-27T06:17:55.278Z,101210.81
2022-12-27T06:20:24.613Z,101223.94
2022-12-27T06:22:53.163Z,101230.81
2022-12-27T06:25:20.899Z,101234.03
2022-12-27T06:27:48.813Z,101239.16
2022-12-27T06:30:16.611Z,101245.19
2022-12-27T06:32:44.477Z,101249.41
2022-12-27T06:35:12.273Z,101250.41
2022-12-27T06:37:41.806Z,101251.72
2022-12-27T06:40:13.528Z,101241.94
2022-12-27T06:42:41.357Z,101249.84
2022-12-27T06:45:10.533Z,101251.59
2022-12-27T06:47:38.650Z,101250.06
2022-12-27T06:50:12.627Z,101254.94
2022-12-27T06:52:41.768Z,101259.22
2022-12-27T06:55:10.175Z,101256.19
2022-12-27T06:57:38.399Z,101266.78
2022-12-27T07:00:11.620Z,101259.22
2022-12-27T07:02:39.599Z,101264.00
2022-12-27T07:05:10.809Z,101269.72
2022-12-27T07:07:38.772Z,101283.91
2022-12-27T07:10:09.719Z,101277.78
2022-12-27T07:12:37.930Z,101279.41
2022-12-27T07:15:10.706Z,101286.28
2022-12-27T07:17:39.230Z,101288.56
2022-12-27T07:20:09.235Z,101298.56
2022-12-27T07:22:37.159Z,101292.81
2022-12-27T07:25:09.890Z,101293.09
2022-12-27T07:27:37.990Z,101302.69
2022-12-27T07:30:13.728Z,101299.56
2022-12-27T07:32:41.597Z,101304.56
2022-12-27T07:35:12.850Z,101312.28
2022-12-27T07:37:40.581Z,101311.19
2022-12-27T07:40:15.985Z,101325.22
2022-12-27T07:42:43.794Z,101328.06
2022-12-27T07:45:11.891Z,101327.38
2022-12-27T07:47:39.761Z,101336.84
2022-12-27T07:50:08.806Z,101336.63
2022-12-27T07:52:36.653Z,101331.91
2022-12-27T07:55:06.290Z,101329.75
2022-12-27T07:57:35.471Z,101336.63
2022-12-27T08:00:05.697Z,101329.94
2022-12-27T08:02:39.661Z,101341.69
2022-12-27T08:05:08.652Z,101338.63
2022-12-27T08:07:38.414Z,101345.25
2022-12-27T08:10:12.040Z,101345.94
2022-12-27T08:12:42.055Z,101348.97
2022-12-27T08:15:11.909Z,101342.94
2022-12-27T08:17:39.733Z,101359.13
2022-12-27T08:20:14.088Z,101352.44
2022-12-27T08:22:41.891Z,101365.84
2022-12-27T08:25:10.350Z,101354.75
2022-12-27T08:27:39.994Z,101364.00
2022-12-27T08:30:11.163Z,101370.13
2022-12-27T08:32:39.033Z,101368.06
2022-12-27T08:35:41.920Z,101378.56
2022-12-27T08:37:55.793Z,101379.44
2022-12-27T08:40:23.746Z,101374.41
2022-12-27T08:42:51.510Z,101378.72
2022-12-27T08:45:20.593Z,101373.75
2022-12-27T08:47:48.384Z,101374.63
2022-12-27T08:50:16.313Z,101377.63
2022-12-27T08:52:44.051Z,101382.84
2022-12-27T08:55:12.091Z,101392.63
2022-12-27T08:57:39.999Z,101396.06
2022-12-27T09:00:12.825Z,101386.53
2022-12-27T09:02:42.084Z,101395.19
2022-12-27T09:05:10.326Z,101393.16
2022-12-27T09:07:38.201Z,101396.19
2022-12-27T09:10:10.194Z,101391.41
2022-12-27T09:12:38.124Z,101396.72
2022-12-27T09:15:08.090Z,101396.13
2022-12-27T09:17:36.026Z,101393.97
2022-12-27T09:20:07.865Z,101402.50
2022-12-27T09:22:36.019Z,101397.91
2022-12-27T09:25:04.725Z,101402.69
2022-12-27T09:27:34.633Z,101398.81
2022-12-27T09:30:04.159Z,101408.53
2022-12-27T09:32:32.096Z,101403.19
2022-12-27T09:35:00.056Z,101414.63
2022-12-27T09:37:29.549Z,101401.84
2022-12-27T09:39:57.353Z,101396.94
2022-12-27T09:42:56.683Z,101401.31
2022-12-27T09:45:39.828Z,101404.28
2022-12-27T09:48:15.412Z,101406.16
2022-12-27T09:50:52.295Z,101390.00
2022-12-27T09:53:31.769Z,101404.72
2022-12-27T09:56:00.122Z,101406.41
2022-12-27T09:58:44.594Z,101396.00
2022-12-27T10:01:22.785Z,101398.69
2022-12-27T10:03:52.227Z,101394.97
2022-12-27T10:06:47.426Z,101394.56
2022-12-27T10:09:40.149Z,101400.38
2022-12-27T10:12:31.772Z,101395.50
2022-12-27T10:15:19.631Z,101387.84
2022-12-27T10:18:03.253Z,101398.53
2022-12-27T10:20:51.922Z,101402.81
2022-12-27T10:23:24.561Z,101403.84
2022-12-27T10:25:59.234Z,101399.78
2022-12-27T10:28:37.654Z,101408.63
2022-12-27T10:31:06.458Z,101400.53
2022-12-27T10:33:35.587Z,101401.72
2022-12-27T10:36:12.724Z,101405.22
2022-12-27T10:38:40.512Z,101400.09
2022-12-27T10:41:27.573Z,101405.06
2022-12-27T10:43:55.899Z,101390.88
2022-12-27T10:46:32.512Z,101403.22
2022-12-27T10:49:21.872Z,101410.22
2022-12-27T10:51:52.542Z,101405.72
2022-12-27T10:54:25.931Z,101402.00
2022-12-27T10:56:57.540Z,101416.38
2022-12-27T10:59:28.783Z,101415.44
2022-12-27T11:02:17.770Z,101419.31
2022-12-27T11:05:00.858Z,101420.41
2022-12-27T11:07:31.257Z,101424.59
2022-12-27T11:10:15.562Z,101427.44
2022-12-27T11:12:58.476Z,101427.47
2022-12-27T11:15:30.185Z,101425.41
2022-12-27T11:18:01.383Z,101422.94
2022-12-27T11:20:33.200Z,101432.53
2022-12-27T11:23:11.091Z,101437.13
2022-12-27T11:25:53.649Z,101428.03
2022-12-27T11:28:33.805Z,101432.75
2022-12-27T11:31:06.880Z,101437.09
2022-12-27T11:33:39.935Z,101433.41
2022-12-27T11:36:10.957Z,101432.91
2022-12-27T11:38:44.916Z,101438.38
2022-12-27T11:41:27.893Z,101433.88
2022-12-27T11:44:05.679Z,101430.00
2022-12-27T11:46:41.555Z,101427.41
2022-12-27T11:49:21.239Z,101424.63
2022-12-27T11:52:36.855Z,101414.31
2022-12-27T11:55:41.123Z,101419.63
2022-12-27T11:58:51.533Z,101423.50
2022-12-27T12:02:15.405Z,101429.06
2022-12-27T12:05:27.097Z,101426.09
2022-12-27T12:08:22.495Z,101426.28
2022-12-27T12:11:07.007Z,101419.34
2022-12-27T12:14:00.165Z,101411.38
2022-12-27T12:17:04.679Z,101398.63
2022-12-27T12:19:58.477Z,101393.88
2022-12-27T12:22:54.498Z,101394.91
2022-12-27T12:25:55.536Z,101385.38
2022-12-27T12:29:00.282Z,101380.13
2022-12-27T12:32:00.914Z,101376.06
2022-12-27T12:35:06.211Z,101367.78
2022-12-27T12:38:02.039Z,101359.09
2022-12-27T12:41:03.948Z,101360.78
2022-12-27T12:44:03.342Z,101371.34
2022-12-27T12:46:41.774Z,101366.59
2022-12-27T12:49:38.569Z,101360.50
2022-12-27T12:52:39.064Z,101358.88
2022-12-27T12:55:38.514Z,101357.03
2022-12-27T12:58:24.424Z,101353.91
2022-12-27T13:01:16.268Z,101353.91
2022-12-27T13:04:12.898Z,101359.53
2022-12-27T13:07:17.825Z,101357.72
2022-12-27T13:10:14.875Z,101358.22
2022-12-27T13:12:54.500Z,101348.06
2022-12-27T13:15:47.768Z,101336.97
2022-12-27T13:18:30.699Z,101335.69
2022-12-27T13:21:15.255Z,101332.69
2022-12-27T13:23:59.487Z,101332.16
2022-12-27T13:26:43.465Z,101322.00
2022-12-27T13:29:47.539Z,101318.00
2022-12-27T13:32:32.183Z,101316.41
2022-12-27T13:35:26.894Z,101318.50
2022-12-27T13:38:13.456Z,101307.41
2022-12-27T13:41:09.766Z,101292.81
2022-12-27T13:44:22.833Z,101295.88
2022-12-27T13:47:28.753Z,101296.50
2022-12-27T13:50:33.660Z,101299.22
2022-12-27T13:53:51.887Z,101301.78
2022-12-27T13:59:57.057Z,101288.47
2022-12-27T14:03:15.985Z,101282.44
2022-12-27T14:06:29.677Z,101283.19
2022-12-27T14:09:34.759Z,101282.03
2022-12-27T14:12:36.091Z,101270.34
2022-12-27T14:15:08.409Z,101282.69
2022-12-27T14:17:47.623Z,101276.84
2022-12-27T14:20:39.420Z,101281.84
2022-12-27T14:23:39.809Z,101268.13
2022-12-27T14:26:52.782Z,101269.72
2022-12-27T14:29:55.987Z,101270.81
2022-12-27T14:33:03.868Z,101266.84
2022-12-27T14:36:11.744Z,101272.00
2022-12-27T14:39:26.635Z,101268.56
2022-12-27T14:42:38.509Z,101274.81
2022-12-27T14:45:57.689Z,101269.34
2022-12-27T14:49:14.742Z,101266.84
2022-12-27T14:52:25.701Z,101269.34
2022-12-27T14:55:24.901Z,101263.28
2022-12-27T14:58:23.665Z,101265.97
2022-12-27T15:01:09.282Z,101258.81
2022-12-27T15:04:09.401Z,101258.28
2022-12-27T15:07:07.970Z,101265.53
2022-12-27T15:09:47.525Z,101259.81
2022-12-27T15:12:34.132Z,101256.66
2022-12-27T15:15:22.739Z,101254.13
2022-12-27T15:18:19.912Z,101257.63
2022-12-27T15:21:13.264Z,101259.59
2022-12-27T15:23:53.362Z,101250.09
2022-12-27T15:26:34.877Z,101245.25
2022-12-27T15:29:26.570Z,101239.63
2022-12-27T15:32:09.749Z,101240.19
2022-12-27T15:35:01.667Z,101242.13
2022-12-27T15:38:01.295Z,101248.69
2022-12-27T15:41:03.095Z,101236.44
2022-12-27T15:44:01.661Z,101235.31
2022-12-27T15:47:11.601Z,101233.41
2022-12-27T15:50:14.472Z,101228.41
2022-12-27T15:53:14.125Z,101229.25
2022-12-27T15:56:16.200Z,101236.16
2022-12-27T15:58:45.295Z,101237.78
2022-12-27T16:01:28.789Z,101232.03
2022-12-27T16:03:58.518Z,101231.16
2022-12-27T16:06:51.938Z,101239.44
2022-12-27T16:09:39.041Z,101235.16
2022-12-27T16:12:13.148Z,101230.00
2022-12-27T16:14:46.161Z,101232.91
2022-12-27T16:17:35.627Z,101233.06
2022-12-27T16:20:16.842Z,101225.34
2022-12-27T16:22:53.947Z,101225.50
2022-12-27T16:25:32.351Z,101221.94
2022-12-27T16:28:07.684Z,101219.75
2022-12-27T16:30:43.079Z,101214.44
2022-12-27T16:33:37.560Z,101206.63
2022-12-27T16:36:17.590Z,101206.91
2022-12-27T16:39:02.050Z,101203.84
2022-12-27T16:41:59.374Z,101201.94
2022-12-27T16:44:48.161Z,101199.34
2022-12-27T16:48:07.895Z,101194.84
2022-12-27T16:51:06.898Z,101192.50
2022-12-27T16:54:04.869Z,101200.19
2022-12-27T16:56:35.790Z,101197.53
2022-12-27T16:59:42.629Z,101195.59
2022-12-27T17:02:39.881Z,101206.56
2022-12-27T17:05:35.726Z,101197.69
2022-12-27T17:08:16.025Z,101204.91
2022-12-27T17:11:02.272Z,101195.03
2022-12-27T17:13:42.111Z,101193.13
2022-12-27T17:16:20.157Z,101189.72
2022-12-27T17:18:56.218Z,101188.38
2022-12-27T17:21:30.865Z,101181.16
2022-12-27T17:24:05.608Z,101175.13
2022-12-27T17:27:01.234Z,101171.28
2022-12-27T17:30:05.818Z,101172.03
2022-12-27T17:32:58.059Z,101164.47
2022-12-27T17:35:35.391Z,101161.75
2022-12-27T17:38:25.635Z,101163.81
2022-12-27T17:41:15.655Z,101165.25
2022-12-27T17:44:19.278Z,101161.69
2022-12-27T17:46:56.098Z,101167.13
2022-12-27T17:49:29.996Z,101159.31
2022-12-27T17:52:19.632Z,101157.84
2022-12-27T17:55:07.207Z,101155.66
2022-12-27T17:57:56.961Z,101155.81
2022-12-27T18:00:29.605Z,101147.50
2022-12-27T18:03:02.700Z,101138.00
2022-12-27T18:05:33.551Z,101142.22
2022-12-27T18:08:06.946Z,101132.03
2022-12-27T18:10:36.589Z,101138.22
2022-12-27T18:13:06.693Z,101138.00
2022-12-27T18:15:44.026Z,101133.06
2022-12-27T18:18:28.195Z,101130.53
2022-12-27T18:20:59.850Z,101130.97
2022-12-27T18:23:29.831Z,101125.88
2022-12-27T18:26:12.791Z,101116.75
2022-12-27T18:28:42.721Z,101113.28
2022-12-27T18:31:21.563Z,101114.16
2022-12-27T18:33:52.362Z,101101.00
2022-12-27T18:36:28.402Z,101095.63
2022-12-27T18:39:02.382Z,101092.78
2022-12-27T18:41:38.291Z,101095.34
2022-12-27T18:44:18.784Z,101096.94
2022-12-27T18:46:56.210Z,101101.75
2022-12-27T18:49:30.260Z,101108.53
2022-12-27T18:51:59.328Z,101099.91
2022-12-27T18:54:35.895Z,101091.81
2022-12-27T18:57:24.783Z,101082.31
2022-12-27T19:00:03.667Z,101077.78
2022-12-27T19:02:36.298Z,101077.78
2022-12-27T19:05:29.200Z,101080.06
2022-12-27T19:08:10.397Z,101078.72
2022-12-27T19:10:49.125Z,101076.50
2022-12-27T19:13:23.309Z,101077.97
2022-12-27T19:15:53.492Z,101071.19
2022-12-27T19:18:26.471Z,101074.59
2022-12-27T19:20:58.668Z,101075.91
2022-12-27T19:23:32.515Z,101071.34
2022-12-27T19:26:07.782Z,101072.38
2022-12-27T19:28:36.303Z,101066.78
2022-12-27T19:31:21.686Z,101061.78
2022-12-27T19:33:54.445Z,101059.25
2022-12-27T19:36:26.980Z,101066.19
2022-12-27T19:38:58.127Z,101060.44
2022-12-27T19:41:27.704Z,101069.28
2022-12-27T19:43:56.417Z,101068.28
2022-12-27T19:46:30.963Z,101064.81
2022-12-27T19:51:47.019Z,101053.38
2022-12-27T19:54:18.966Z,101048.97
2022-12-27T19:56:48.214Z,101042.47
2022-12-27T19:59:19.192Z,101038.53
2022-12-27T20:01:47.786Z,101033.06
2022-12-27T20:04:17.405Z,101039.16
2022-12-27T20:06:48.779Z,101034.69
2022-12-27T20:09:19.377Z,101027.09
2022-12-27T20:11:49.815Z,101033.88
2022-12-27T20:14:17.932Z,101027.47
2022-12-27T20:16:47.348Z,101026.44
2022-12-27T20:19:18.079Z,101017.69
2022-12-27T20:21:46.910Z,101015.38
2022-12-27T20:24:14.893Z,101011.72
2022-12-27T20:26:43.156Z,101011.41
2022-12-27T20:29:15.125Z,101009.97
2022-12-27T20:31:48.501Z,100999.56
2022-12-27T20:34:16.419Z,101002.94
2022-12-27T20:36:44.655Z,100996.66
2022-12-27T20:39:12.499Z,101000.94
2022-12-27T20:41:40.323Z,100990.72
2022-12-27T20:44:08.083Z,100987.69
2022-12-27T20:46:37.195Z,100995.84
2022-12-27T20:49:05.020Z,100992.38
2022-12-27T20:51:33.436Z,100992.53
2022-12-27T20:54:05.143Z,100988.84
2022-12-27T20:56:34.153Z,100995.28
2022-12-27T20:59:01.971Z,100991.50
2022-12-27T21:01:29.871Z,100987.09
2022-12-27T21:03:59.265Z,100983.25
2022-12-27T21:06:28.911Z,100983.09
2022-12-27T21:08:58.525Z,100972.94
2022-12-27T21:11:31.261Z,100975.19
2022-12-27T21:14:00.965Z,100973.81
2022-12-27T21:16:31.861Z,100974.84
2022-12-27T21:19:05.021Z,100967.94
2022-12-27T21:21:37.223Z,100967.94
2022-12-27T21:24:08.812Z,100962.94
2022-12-27T21:26:39.331Z,100961.19
2022-12-27T21:29:09.874Z,100949.44
2022-12-27T21:31:38.314Z,100956.78
2022-12-27T21:34:07.873Z,100948.97
2022-12-27T21:36:38.309Z,100948.09
2022-12-27T21:39:07.419Z,100948.16
2022-12-27T21:41:38.183Z,100951.47
2022-12-27T21:44:06.801Z,100951.47
2022-12-27T21:46:38.166Z,100953.22
2022-12-27T21:49:09.969Z,100947.50
2022-12-27T21:51:39.016Z,100952.16
2022-12-27T21:54:07.384Z,100951.03
2022-12-27T21:56:35.258Z,100939.13
2022-12-27T21:59:07.150Z,100943.38
2022-12-27T22:01:50.225Z,100934.47
2022-12-27T22:04:21.913Z,100935.31
2022-12-27T22:06:50.232Z,100928.69
2022-12-27T22:09:19.039Z,100926.63
2022-12-27T22:11:47.333Z,100928.44
2022-12-27T22:14:15.213Z,100917.34
2022-12-27T22:16:43.247Z,100908.88
2022-12-27T22:19:13.604Z,100905.34
2022-12-27T22:21:43.513Z,100899.56
2022-12-27T22:24:19.091Z,100901.84
2022-12-27T22:26:48.478Z,100890.06
2022-12-27T22:29:17.224Z,100891.81
2022-12-27T22:31:45.027Z,100895.00
2022-12-27T22:34:12.801Z,100877.94
2022-12-27T22:36:42.084Z,100878.81
2022-12-27T22:39:09.890Z,100878.00
2022-12-27T22:41:37.825Z,100869.75
2022-12-27T22:44:08.545Z,100867.03
2022-12-27T22:49:25.908Z,100854.53
2022-12-27T22:51:54.934Z,100846.13
2022-12-27T22:55:05.114Z,100841.44
2022-12-27T22:57:10.685Z,100819.22
2022-12-27T22:59:38.429Z,100824.97
2022-12-27T23:02:06.350Z,100816.75
2022-12-27T23:04:34.458Z,100816.00
2022-12-27T23:07:03.677Z,100813.63
2022-12-27T23:09:31.612Z,100797.03
2022-12-27T23:11:59.715Z,100801.31
2022-12-27T23:14:27.492Z,100793.16
2022-12-27T23:16:58.313Z,100777.25
2022-12-27T23:19:26.121Z,100786.41
2022-12-27T23:21:54.469Z,100771.25
2022-12-27T23:24:23.853Z,100777.56
2022-12-27T23:26:51.716Z,100766.22
2022-12-27T23:29:19.471Z,100762.59
2022-12-27T23:31:54.370Z,100759.94
2022-12-27T23:34:28.320Z,100755.94
2022-12-27T23:36:57.975Z,100762.84
2022-12-27T23:39:28.137Z,100752.44
2022-12-27T23:41:56.263Z,100743.22
2022-12-27T23:44:34.031Z,100740.91
2022-12-27T23:47:04.470Z,100733.97
2022-12-27T23:49:32.366Z,100729.53
2022-12-27T23:52:00.185Z,100718.25
2022-12-27T23:54:30.042Z,100708.66
2022-12-27T23:56:58.050Z,100706.34
2022-12-27T23:59:25.824Z,100703.63
